createdAt,value
2023-05-06T00:00:47.317Z,30.84
2023-05-06T00:01:47.165Z,30.85
2023-05-06T00:02:47.349Z,30.84
2023-05-06T00:03:47.560Z,30.83
2023-05-06T00:04:47.369Z,30.83
2023-05-06T00:05:47.165Z,30.84
2023-05-06T00:06:47.208Z,30.86
2023-05-06T00:07:47.202Z,30.86
2023-05-06T00:08:47.219Z,30.85
2023-05-06T00:09:47.189Z,30.86
2023-05-06T00:10:47.182Z,30.86
2023-05-06T00:11:47.190Z,30.86
2023-05-06T00:12:47.220Z,30.89
2023-05-06T00:13:47.250Z,30.89
2023-05-06T00:14:47.209Z,30.85
2023-05-06T00:15:47.218Z,30.90
2023-05-06T00:16:47.400Z,30.87
2023-05-06T00:17:47.202Z,30.89
2023-05-06T00:18:47.228Z,30.89
2023-05-06T00:19:47.179Z,30.89
2023-05-06T00:20:47.179Z,30.91
2023-05-06T00:21:47.179Z,30.92
2023-05-06T00:22:47.205Z,30.91
2023-05-06T00:23:47.187Z,30.95
2023-05-06T00:24:47.206Z,30.93
2023-05-06T00:25:47.192Z,30.93
2023-05-06T00:26:47.183Z,30.94
2023-05-06T00:27:47.192Z,30.96
2023-05-06T00:28:47.202Z,30.95
2023-05-06T00:29:47.156Z,30.96
2023-05-06T00:30:47.223Z,30.95
2023-05-06T00:31:47.282Z,30.95
2023-05-06T00:32:47.222Z,30.97
2023-05-06T00:33:47.230Z,30.99
2023-05-06T00:34:47.240Z,30.98
2023-05-06T00:35:47.280Z,30.97
2023-05-06T00:36:47.198Z,31.00
2023-05-06T00:37:47.226Z,30.96
2023-05-06T00:38:47.188Z,30.98
2023-05-06T00:39:47.206Z,30.99
2023-05-06T00:40:47.227Z,31.00
2023-05-06T00:41:47.226Z,31.02
2023-05-06T00:42:47.188Z,30.99
2023-05-06T00:43:47.198Z,31.02
2023-05-06T00:44:47.209Z,31.01
2023-05-06T00:45:47.245Z,31.03
2023-05-06T00:46:47.177Z,31.03
2023-05-06T00:47:47.201Z,31.03
2023-05-06T00:48:47.255Z,31.05
2023-05-06T00:49:47.198Z,31.03
2023-05-06T00:50:47.201Z,31.02
2023-05-06T00:51:47.181Z,31.03
2023-05-06T00:52:47.184Z,31.05
2023-05-06T00:53:47.207Z,31.05
2023-05-06T00:54:47.222Z,31.05
2023-05-06T00:55:47.195Z,31.07
2023-05-06T00:56:47.193Z,31.08
2023-05-06T00:57:47.203Z,31.08
2023-05-06T00:58:47.164Z,31.06
2023-05-06T00:59:47.220Z,31.09
2023-05-06T01:00:47.200Z,31.08
2023-05-06T01:01:47.176Z,31.10
2023-05-06T01:02:48.127Z,31.10
2023-05-06T01:03:47.335Z,31.09
2023-05-06T01:04:47.289Z,31.10
2023-05-06T01:05:47.205Z,31.12
2023-05-06T01:06:47.156Z,31.15
2023-05-06T01:07:47.176Z,31.13
2023-05-06T01:08:47.185Z,31.13
2023-05-06T01:09:47.209Z,31.16
2023-05-06T01:10:47.224Z,31.14
2023-05-06T01:11:47.246Z,31.14
2023-05-06T01:12:47.236Z,31.16
2023-05-06T01:13:47.211Z,31.14
2023-05-06T01:14:47.159Z,31.15
2023-05-06T01:15:47.214Z,31.16
2023-05-06T01:16:47.270Z,31.17
2023-05-06T01:17:47.280Z,31.19
2023-05-06T01:18:47.184Z,31.15
2023-05-06T01:19:47.182Z,31.18
2023-05-06T01:20:47.288Z,31.16
2023-05-06T01:21:47.254Z,31.16
2023-05-06T01:22:47.210Z,31.16
2023-05-06T01:23:47.213Z,31.18
2023-05-06T01:24:47.217Z,31.19
2023-05-06T01:25:47.214Z,31.18
2023-05-06T01:26:47.187Z,31.20
2023-05-06T01:27:47.186Z,31.23
2023-05-06T01:28:47.199Z,31.21
2023-05-06T01:29:47.214Z,31.23
2023-05-06T01:30:47.205Z,31.20
2023-05-06T01:31:47.217Z,31.24
2023-05-06T01:32:47.218Z,31.24
2023-05-06T01:33:47.240Z,31.22
2023-05-06T01:34:47.233Z,31.21
2023-05-06T01:35:47.211Z,31.25
2023-05-06T01:36:47.303Z,31.22
2023-05-06T01:37:47.254Z,31.26
2023-05-06T01:38:47.319Z,31.28
2023-05-06T01:39:47.274Z,31.30
2023-05-06T01:40:47.278Z,31.26
2023-05-06T01:41:47.223Z,31.30
2023-05-06T01:42:47.291Z,31.26
2023-05-06T01:43:47.259Z,31.28
2023-05-06T01:44:47.306Z,31.28
2023-05-06T01:45:47.251Z,31.29
2023-05-06T01:46:47.394Z,31.29
2023-05-06T01:47:47.291Z,31.30
2023-05-06T01:48:47.284Z,31.26
2023-05-06T01:49:47.284Z,31.29
2023-05-06T01:50:47.282Z,31.29
2023-05-06T01:51:47.356Z,31.31
2023-05-06T01:52:47.351Z,31.34
2023-05-06T01:53:47.303Z,31.32
2023-05-06T01:54:47.303Z,31.29
2023-05-06T01:55:47.272Z,31.30
2023-05-06T01:56:47.283Z,31.32
2023-05-06T01:57:47.289Z,31.32
2023-05-06T01:58:47.292Z,31.33
2023-05-06T01:59:47.306Z,31.33
2023-05-06T02:00:47.329Z,31.36
2023-05-06T02:01:47.364Z,31.38
2023-05-06T02:02:47.469Z,31.37
2023-05-06T02:03:47.495Z,31.36
2023-05-06T02:04:47.293Z,31.34
2023-05-06T02:05:47.332Z,31.35
2023-05-06T02:06:47.304Z,31.36
2023-05-06T02:07:47.300Z,31.38
2023-05-06T02:08:47.371Z,31.39
2023-05-06T02:09:47.309Z,31.38
2023-05-06T02:10:47.297Z,31.41
2023-05-06T02:11:47.329Z,31.37
2023-05-06T02:12:47.360Z,31.39
2023-05-06T02:13:47.353Z,31.39
2023-05-06T02:14:47.321Z,31.40
2023-05-06T02:15:47.408Z,31.37
2023-05-06T02:16:47.317Z,31.38
2023-05-06T02:17:47.371Z,31.40
2023-05-06T02:18:47.322Z,31.39
2023-05-06T02:19:47.343Z,31.38
2023-05-06T02:20:47.348Z,31.38
2023-05-06T02:21:47.353Z,31.40
2023-05-06T02:22:47.390Z,31.43
2023-05-06T02:23:47.369Z,31.42
2023-05-06T02:24:47.399Z,31.45
2023-05-06T02:25:47.380Z,31.43
2023-05-06T02:26:47.386Z,31.48
2023-05-06T02:27:47.375Z,31.48
2023-05-06T02:28:47.386Z,31.44
2023-05-06T02:29:47.393Z,31.44
2023-05-06T02:30:47.426Z,31.43
2023-05-06T02:31:47.448Z,31.48
2023-05-06T02:32:47.438Z,31.48
2023-05-06T02:33:47.376Z,31.48
2023-05-06T02:34:47.386Z,31.46
2023-05-06T02:35:47.439Z,31.49
2023-05-06T02:36:47.418Z,31.45
2023-05-06T02:37:47.412Z,31.47
2023-05-06T02:38:47.424Z,31.47
2023-05-06T02:39:47.430Z,31.49
2023-05-06T02:40:47.504Z,31.48
2023-05-06T02:41:47.412Z,31.40
2023-05-06T02:42:47.500Z,31.51
2023-05-06T02:43:47.427Z,31.53
2023-05-06T02:44:47.428Z,31.51
2023-05-06T02:45:47.472Z,31.48
2023-05-06T02:46:47.508Z,31.47
2023-05-06T02:47:47.436Z,31.49
2023-05-06T02:48:47.456Z,31.48
2023-05-06T02:49:47.442Z,31.52
2023-05-06T02:50:47.424Z,31.50
2023-05-06T02:51:47.400Z,31.49
2023-05-06T02:52:47.447Z,31.49
2023-05-06T02:53:47.514Z,31.49
2023-05-06T02:54:47.419Z,31.44
2023-05-06T02:55:47.426Z,31.51
2023-05-06T02:56:47.518Z,31.53
2023-05-06T02:57:47.456Z,31.49
2023-05-06T02:58:47.507Z,31.50
2023-05-06T02:59:47.495Z,31.47
2023-05-06T03:00:47.473Z,31.46
2023-05-06T03:01:47.508Z,31.50
2023-05-06T03:02:47.479Z,31.50
2023-05-06T03:03:47.491Z,31.47
2023-05-06T03:04:47.463Z,31.52
2023-05-06T03:05:47.576Z,31.59
2023-05-06T03:06:47.501Z,31.57
2023-05-06T03:07:47.486Z,31.56
2023-05-06T03:08:47.491Z,31.55
2023-05-06T03:09:47.501Z,31.54
2023-05-06T03:10:47.506Z,31.55
2023-05-06T03:11:47.514Z,31.53
2023-05-06T03:12:47.613Z,31.57
2023-05-06T03:13:47.537Z,31.57
2023-05-06T03:14:47.544Z,31.55
2023-05-06T03:15:47.539Z,31.59
2023-05-06T03:16:47.591Z,31.55
2023-05-06T03:17:47.601Z,31.60
2023-05-06T03:18:47.550Z,31.57
2023-05-06T03:19:47.587Z,31.55
2023-05-06T03:20:47.583Z,31.57
2023-05-06T03:21:47.611Z,31.61
2023-05-06T03:22:47.593Z,31.55
2023-05-06T03:23:47.604Z,31.57
2023-05-06T03:24:47.671Z,31.56
2023-05-06T03:25:47.663Z,31.47
2023-05-06T03:26:47.674Z,31.55
2023-05-06T03:27:47.651Z,31.60
2023-05-06T03:28:47.857Z,31.62
2023-05-06T03:29:47.653Z,31.61
2023-05-06T03:30:47.708Z,31.59
2023-05-06T03:31:47.736Z,31.62
2023-05-06T03:32:47.776Z,31.66
2023-05-06T03:33:47.728Z,31.66
2023-05-06T03:34:47.742Z,31.66
2023-05-06T03:35:47.747Z,31.62
2023-05-06T03:36:47.725Z,31.59
2023-05-06T03:37:47.759Z,31.57
2023-05-06T03:38:47.759Z,31.57
2023-05-06T03:39:47.781Z,31.57
2023-05-06T03:40:47.783Z,31.65
2023-05-06T03:41:47.793Z,31.59
2023-05-06T03:42:47.789Z,31.53
2023-05-06T03:43:47.841Z,31.49
2023-05-06T03:44:47.920Z,31.55
2023-05-06T03:45:47.876Z,31.58
2023-05-06T03:46:47.861Z,31.63
2023-05-06T03:47:48.347Z,31.68
2023-05-06T03:48:47.881Z,31.69
2023-05-06T03:49:47.886Z,31.62
2023-05-06T03:50:47.899Z,31.60
2023-05-06T03:51:47.893Z,31.54
2023-05-06T03:52:47.905Z,31.61
2023-05-06T03:53:47.975Z,31.52
2023-05-06T03:54:47.929Z,31.56
2023-05-06T03:55:47.974Z,31.61
2023-05-06T03:56:48.016Z,31.63
2023-05-06T03:57:47.989Z,31.65
2023-05-06T03:58:47.986Z,31.61
2023-05-06T03:59:48.057Z,31.59
2023-05-06T04:00:48.068Z,31.57
2023-05-06T04:01:48.053Z,31.51
2023-05-06T04:02:48.024Z,31.52
2023-05-06T04:03:48.136Z,31.65
2023-05-06T04:04:48.094Z,31.64
2023-05-06T04:05:48.081Z,31.54
2023-05-06T04:06:48.078Z,31.58
2023-05-06T04:07:48.083Z,31.67
2023-05-06T04:08:48.099Z,31.71
2023-05-06T04:09:48.092Z,31.69
2023-05-06T04:10:48.111Z,31.62
2023-05-06T04:11:48.139Z,31.62
2023-05-06T04:12:48.162Z,31.61
2023-05-06T04:13:48.152Z,31.62
2023-05-06T04:14:48.152Z,31.63
2023-05-06T04:15:48.240Z,31.65
2023-05-06T04:16:48.311Z,31.67
2023-05-06T04:17:48.243Z,31.56
2023-05-06T04:18:48.203Z,31.61
2023-05-06T04:19:48.227Z,31.64
2023-05-06T04:20:48.259Z,31.62
2023-05-06T04:21:48.205Z,31.63
2023-05-06T04:22:48.215Z,31.64
2023-05-06T04:23:48.273Z,31.63
2023-05-06T04:24:48.266Z,31.65
2023-05-06T04:25:48.293Z,31.66
2023-05-06T04:26:48.292Z,31.62
2023-05-06T04:27:48.280Z,31.64
2023-05-06T04:28:48.309Z,31.64
2023-05-06T04:29:48.314Z,31.64
2023-05-06T04:30:48.300Z,31.69
2023-05-06T04:31:48.330Z,31.64
2023-05-06T04:32:48.409Z,31.69
2023-05-06T04:33:48.320Z,31.70
2023-05-06T04:34:48.344Z,31.67
2023-05-06T04:35:48.358Z,31.65
2023-05-06T04:36:48.365Z,31.64
2023-05-06T04:37:48.374Z,31.75
2023-05-06T04:38:48.414Z,31.70
2023-05-06T04:39:48.405Z,31.70
2023-05-06T04:40:48.407Z,31.77
2023-05-06T04:41:48.436Z,31.77
2023-05-06T04:42:48.434Z,31.78
2023-05-06T04:43:48.432Z,31.78
2023-05-06T04:44:48.440Z,31.71
2023-05-06T04:45:48.524Z,31.71
2023-05-06T04:46:48.503Z,31.76
2023-05-06T04:47:48.563Z,31.75
2023-05-06T04:48:48.488Z,31.68
2023-05-06T04:49:48.523Z,31.65
2023-05-06T04:50:48.519Z,31.65
2023-05-06T04:51:48.524Z,31.75
2023-05-06T04:52:48.563Z,31.63
2023-05-06T04:53:48.513Z,31.72
2023-05-06T04:54:48.646Z,31.65
2023-05-06T04:55:48.584Z,31.65
2023-05-06T04:56:48.554Z,31.68
2023-05-06T04:57:48.563Z,31.73
2023-05-06T04:58:48.573Z,31.77
2023-05-06T04:59:48.611Z,31.69
2023-05-06T05:00:48.615Z,31.66
2023-05-06T05:01:48.688Z,31.68
2023-05-06T05:02:48.640Z,31.72
2023-05-06T05:03:48.631Z,31.70
2023-05-06T05:04:48.641Z,31.72
2023-05-06T05:05:48.616Z,31.69
2023-05-06T05:06:48.675Z,31.70
2023-05-06T05:07:48.662Z,31.68
2023-05-06T05:08:48.694Z,31.79
2023-05-06T05:09:48.755Z,31.78
2023-05-06T05:10:48.730Z,31.76
2023-05-06T05:11:48.741Z,31.84
2023-05-06T05:12:48.773Z,31.72
2023-05-06T05:13:48.757Z,31.74
2023-05-06T05:14:48.758Z,31.67
2023-05-06T05:15:48.757Z,31.79
2023-05-06T05:16:48.793Z,31.73
2023-05-06T05:17:48.799Z,31.68
2023-05-06T05:18:48.782Z,31.74
2023-05-06T05:19:48.772Z,31.73
2023-05-06T05:20:48.800Z,31.79
2023-05-06T05:21:48.818Z,31.81
2023-05-06T05:22:48.797Z,31.80
2023-05-06T05:23:48.807Z,31.77
2023-05-06T05:24:48.799Z,31.86
2023-05-06T05:25:48.832Z,31.82
2023-05-06T05:26:48.813Z,31.80
2023-05-06T05:27:48.916Z,31.76
2023-05-06T05:28:48.916Z,31.81
2023-05-06T05:29:48.911Z,31.84
2023-05-06T05:30:48.940Z,31.76
2023-05-06T05:31:48.980Z,31.73
2023-05-06T05:32:49.016Z,31.88
2023-05-06T05:33:48.909Z,31.77
2023-05-06T05:34:48.957Z,31.78
2023-05-06T05:35:48.953Z,31.80
2023-05-06T05:36:49.020Z,31.83
2023-05-06T05:37:48.976Z,31.84
2023-05-06T05:38:48.937Z,31.86
2023-05-06T05:39:48.998Z,31.86
2023-05-06T05:40:48.997Z,31.86
2023-05-06T05:41:48.975Z,31.86
2023-05-06T05:42:48.963Z,31.77
2023-05-06T05:43:49.014Z,31.78
2023-05-06T05:44:48.970Z,31.84
2023-05-06T05:45:49.021Z,31.84
2023-05-06T05:46:49.122Z,31.84
2023-05-06T05:47:49.071Z,31.87
2023-05-06T05:48:48.985Z,31.89
2023-05-06T05:49:49.056Z,31.85
2023-05-06T05:50:49.056Z,31.83
2023-05-06T05:51:49.062Z,31.81
2023-05-06T05:52:49.067Z,31.83
2023-05-06T05:53:49.010Z,31.83
2023-05-06T05:54:49.014Z,31.87
2023-05-06T05:55:49.039Z,31.82
2023-05-06T05:56:49.239Z,31.84
2023-05-06T05:57:49.036Z,31.85
2023-05-06T05:58:49.104Z,31.83
2023-05-06T05:59:49.071Z,31.83
2023-05-06T06:00:49.047Z,31.85
2023-05-06T06:01:49.079Z,31.90
2023-05-06T06:02:49.142Z,31.91
2023-05-06T06:03:49.216Z,31.96
2023-05-06T06:04:49.133Z,31.89
2023-05-06T06:05:49.063Z,31.89
2023-05-06T06:06:49.090Z,31.88
2023-05-06T06:07:49.080Z,31.92
2023-05-06T06:08:49.128Z,31.91
2023-05-06T06:09:49.108Z,31.87
2023-05-06T06:10:49.050Z,31.92
2023-05-06T06:11:49.096Z,31.92
2023-05-06T06:12:49.179Z,31.94
2023-05-06T06:13:49.077Z,31.93
2023-05-06T06:14:49.090Z,31.98
2023-05-06T06:15:49.170Z,31.98
2023-05-06T06:16:49.092Z,31.98
2023-05-06T06:17:49.189Z,31.97
2023-05-06T06:18:49.150Z,32.01
2023-05-06T06:19:49.121Z,32.05
2023-05-06T06:21:49.103Z,32.02
2023-05-06T06:22:49.119Z,32.01
2023-05-06T06:23:49.111Z,32.01
2023-05-06T06:24:49.168Z,32.04
2023-05-06T06:25:49.083Z,32.04
2023-05-06T06:26:49.143Z,32.07
2023-05-06T06:27:49.098Z,32.06
2023-05-06T06:28:49.083Z,32.06
2023-05-06T06:29:49.119Z,32.05
2023-05-06T06:30:49.095Z,32.08
2023-05-06T06:31:49.146Z,32.04
2023-05-06T06:32:49.174Z,32.09
2023-05-06T06:33:49.096Z,32.03
2023-05-06T06:34:49.152Z,32.05
2023-05-06T06:35:49.101Z,32.06
2023-05-06T06:36:49.091Z,32.05
2023-05-06T06:37:49.107Z,32.06
2023-05-06T06:38:49.118Z,32.06
2023-05-06T06:39:49.203Z,32.04
2023-05-06T06:40:49.245Z,32.05
2023-05-06T06:41:49.097Z,32.06
2023-05-06T06:42:49.100Z,32.02
2023-05-06T06:43:49.110Z,32.02
2023-05-06T06:44:49.111Z,31.99
2023-05-06T06:45:49.103Z,31.99
2023-05-06T06:46:49.132Z,32.00
2023-05-06T06:47:49.171Z,31.99
2023-05-06T06:48:49.097Z,31.98
2023-05-06T06:49:49.156Z,31.98
2023-05-06T06:50:49.131Z,31.97
2023-05-06T06:51:49.107Z,31.96
2023-05-06T06:52:49.097Z,31.96
2023-05-06T06:53:49.156Z,31.97
2023-05-06T06:54:49.124Z,31.98
2023-05-06T06:55:49.125Z,31.98
2023-05-06T06:56:49.152Z,32.02
2023-05-06T06:57:49.096Z,31.95
2023-05-06T06:58:49.874Z,31.97
2023-05-06T06:59:49.118Z,31.90
2023-05-06T07:00:49.147Z,31.92
2023-05-06T07:01:49.121Z,31.88
2023-05-06T07:02:49.136Z,31.90
2023-05-06T07:03:49.135Z,31.90
2023-05-06T07:04:49.104Z,31.88
2023-05-06T07:05:49.153Z,31.89
2023-05-06T07:06:49.159Z,31.85
2023-05-06T07:07:49.184Z,31.84
2023-05-06T07:08:49.183Z,31.81
2023-05-06T07:09:49.179Z,31.83
2023-05-06T07:10:49.185Z,31.79
2023-05-06T07:11:49.203Z,31.75
2023-05-06T07:12:49.212Z,31.71
2023-05-06T07:13:49.251Z,31.72
2023-05-06T07:14:49.249Z,31.73
2023-05-06T07:15:49.306Z,31.68
2023-05-06T07:16:51.370Z,31.63
2023-05-06T07:17:49.409Z,31.66
2023-05-06T07:18:49.345Z,31.66
2023-05-06T07:19:49.397Z,31.54
2023-05-06T07:20:49.445Z,31.53
2023-05-06T07:21:49.536Z,31.55
2023-05-06T07:22:49.580Z,31.49
2023-05-06T07:23:49.671Z,31.53
2023-05-06T07:24:49.712Z,31.41
2023-05-06T07:25:49.814Z,31.39
2023-05-06T07:26:49.849Z,31.40
2023-05-06T07:27:49.922Z,31.42
2023-05-06T07:28:50.031Z,31.39
2023-05-06T07:29:50.040Z,31.42
2023-05-06T07:30:50.129Z,31.45
2023-05-06T07:31:50.135Z,31.45
2023-05-06T07:32:50.283Z,31.46
2023-05-06T07:33:50.278Z,31.50
2023-05-06T07:34:50.311Z,31.44
2023-05-06T07:35:50.395Z,31.48
2023-05-06T07:36:50.426Z,31.38
2023-05-06T07:37:50.492Z,31.37
2023-05-06T07:38:50.481Z,31.40
2023-05-06T07:39:50.534Z,31.43
2023-05-06T07:40:50.618Z,31.49
2023-05-06T07:41:50.622Z,31.44
2023-05-06T07:42:50.661Z,31.37
2023-05-06T07:43:50.729Z,31.34
2023-05-06T07:44:50.959Z,31.27
2023-05-06T07:45:50.816Z,31.23
2023-05-06T07:46:50.868Z,31.17
2023-05-06T07:47:50.882Z,31.17
2023-05-06T07:48:50.889Z,31.14
2023-05-06T07:49:50.902Z,31.21
2023-05-06T07:50:50.874Z,31.17
2023-05-06T07:51:50.939Z,31.16
2023-05-06T07:52:50.979Z,31.21
2023-05-06T07:53:50.933Z,31.22
2023-05-06T07:54:50.961Z,31.21
2023-05-06T07:55:51.021Z,31.18
2023-05-06T07:56:50.988Z,31.20
2023-05-06T07:57:50.993Z,31.20
2023-05-06T07:58:51.043Z,31.16
2023-05-06T07:59:51.162Z,31.15
2023-05-06T08:00:51.099Z,31.16
2023-05-06T08:01:51.067Z,31.17
2023-05-06T08:02:51.133Z,31.21
2023-05-06T08:03:51.286Z,31.20
2023-05-06T08:04:51.986Z,31.22
2023-05-06T08:05:51.089Z,31.26
2023-05-06T08:06:51.092Z,31.22
2023-05-06T08:07:51.143Z,31.29
2023-05-06T08:08:51.142Z,31.27
2023-05-06T08:09:51.169Z,31.26
2023-05-06T08:10:51.158Z,31.25
2023-05-06T08:11:51.199Z,31.27
2023-05-06T08:12:51.222Z,31.23
2023-05-06T08:13:51.211Z,31.21
2023-05-06T08:14:51.206Z,31.18
2023-05-06T08:15:51.288Z,31.10
2023-05-06T08:16:51.323Z,31.06
2023-05-06T08:17:51.265Z,31.04
2023-05-06T08:18:51.246Z,31.00
2023-05-06T08:19:51.265Z,31.02
2023-05-06T08:20:51.316Z,31.00
2023-05-06T08:21:51.273Z,30.98
2023-05-06T08:22:51.314Z,30.91
2023-05-06T08:23:51.280Z,30.92
2023-05-06T08:24:51.278Z,30.95
2023-05-06T08:25:51.268Z,30.94
2023-05-06T08:26:51.297Z,30.95
2023-05-06T08:27:51.287Z,31.00
2023-05-06T08:28:51.305Z,31.00
2023-05-06T08:29:51.377Z,30.99
2023-05-06T08:30:51.464Z,30.95
2023-05-06T08:31:51.448Z,30.90
2023-05-06T08:32:51.490Z,30.87
2023-05-06T08:33:54.353Z,30.88
2023-05-06T08:34:51.439Z,30.85
2023-05-06T08:35:51.454Z,30.84
2023-05-06T08:36:51.432Z,30.83
2023-05-06T08:37:51.427Z,30.89
2023-05-06T08:38:51.417Z,30.90
2023-05-06T08:39:51.428Z,30.91
2023-05-06T08:40:51.372Z,30.92
2023-05-06T08:41:51.372Z,30.94
2023-05-06T08:42:51.365Z,30.95
2023-05-06T08:43:51.334Z,30.97
2023-05-06T08:44:51.403Z,30.95
2023-05-06T08:45:51.409Z,30.98
2023-05-06T08:46:51.365Z,30.98
2023-05-06T08:47:51.367Z,30.98
2023-05-06T08:48:51.458Z,31.02
2023-05-06T08:49:51.347Z,31.02
2023-05-06T08:50:51.329Z,31.03
2023-05-06T08:51:51.347Z,31.02
2023-05-06T08:52:51.320Z,31.04
2023-05-06T08:53:51.324Z,31.04
2023-05-06T08:54:51.302Z,31.02
2023-05-06T08:55:51.349Z,31.02
2023-05-06T08:56:51.295Z,31.02
2023-05-06T08:57:51.304Z,31.03
2023-05-06T08:58:51.285Z,31.04
2023-05-06T08:59:51.250Z,31.01
2023-05-06T09:00:51.266Z,31.05
2023-05-06T09:01:51.268Z,31.03
2023-05-06T09:02:51.411Z,31.03
2023-05-06T09:03:51.289Z,31.05
2023-05-06T09:04:51.395Z,31.09
2023-05-06T09:05:51.227Z,31.08
2023-05-06T09:06:51.224Z,31.07
2023-05-06T09:07:51.252Z,31.09
2023-05-06T09:08:51.254Z,31.08
2023-05-06T09:09:51.217Z,31.09
2023-05-06T09:10:51.238Z,31.10
2023-05-06T09:11:51.196Z,31.12
2023-05-06T09:12:51.249Z,31.16
2023-05-06T09:13:51.191Z,31.15
2023-05-06T09:14:51.202Z,31.18
2023-05-06T09:15:51.194Z,31.18
2023-05-06T09:16:51.224Z,31.18
2023-05-06T09:17:51.247Z,31.21
2023-05-06T09:18:51.175Z,31.23
2023-05-06T09:19:51.189Z,31.22
2023-05-06T09:20:51.132Z,31.24
2023-05-06T09:21:51.149Z,31.26
2023-05-06T09:22:51.144Z,31.26
2023-05-06T09:23:51.150Z,31.29
2023-05-06T09:24:51.106Z,31.29
2023-05-06T09:25:51.140Z,31.31
2023-05-06T09:26:51.136Z,31.30
2023-05-06T09:27:51.129Z,31.32
2023-05-06T09:28:51.088Z,31.30
2023-05-06T09:29:51.080Z,31.32
2023-05-06T09:30:51.074Z,31.37
2023-05-06T09:31:51.092Z,31.37
2023-05-06T09:32:51.078Z,31.38
2023-05-06T09:33:51.071Z,31.40
2023-05-06T09:34:51.052Z,31.41
2023-05-06T09:35:51.027Z,31.42
2023-05-06T09:36:51.156Z,31.43
2023-05-06T09:37:51.051Z,31.45
2023-05-06T09:38:51.012Z,31.45
2023-05-06T09:39:51.013Z,31.48
2023-05-06T09:40:51.024Z,31.49
2023-05-06T09:41:51.024Z,31.50
2023-05-06T09:42:51.032Z,31.48
2023-05-06T09:43:51.001Z,31.51
2023-05-06T09:44:50.984Z,31.50
2023-05-06T09:45:50.972Z,31.52
2023-05-06T09:46:51.015Z,31.55
2023-05-06T09:47:50.968Z,31.56
2023-05-06T09:48:50.971Z,31.58
2023-05-06T09:49:50.943Z,31.58
2023-05-06T09:50:50.920Z,31.60
2023-05-06T09:51:50.933Z,31.62
2023-05-06T09:52:50.996Z,31.61
2023-05-06T09:53:50.949Z,31.62
2023-05-06T09:54:50.911Z,31.63
2023-05-06T09:55:50.905Z,31.65
2023-05-06T09:56:50.924Z,31.64
2023-05-06T09:57:50.928Z,31.67
2023-05-06T09:58:50.933Z,31.66
2023-05-06T09:59:50.888Z,31.67
2023-05-06T10:00:50.880Z,31.66
2023-05-06T10:01:50.923Z,31.67
2023-05-06T10:02:50.985Z,31.66
2023-05-06T10:03:50.973Z,31.66
2023-05-06T10:04:51.348Z,31.68
2023-05-06T10:05:50.898Z,31.66
2023-05-06T10:06:50.844Z,31.66
2023-05-06T10:07:50.822Z,31.65
2023-05-06T10:08:50.893Z,31.67
2023-05-06T10:09:50.821Z,31.67
2023-05-06T10:10:50.818Z,31.66
2023-05-06T10:11:50.824Z,31.64
2023-05-06T10:12:50.849Z,31.64
2023-05-06T10:13:50.790Z,31.62
2023-05-06T10:14:50.770Z,31.63
2023-05-06T10:15:50.852Z,31.62
2023-05-06T10:16:50.787Z,31.64
2023-05-06T10:17:50.765Z,31.59
2023-05-06T10:18:50.721Z,31.61
2023-05-06T10:19:50.720Z,31.60
2023-05-06T10:20:50.751Z,31.59
2023-05-06T10:21:50.727Z,31.56
2023-05-06T10:22:50.736Z,31.57
2023-05-06T10:23:50.753Z,31.56
2023-05-06T10:24:50.801Z,31.53
2023-05-06T10:25:50.706Z,31.52
2023-05-06T10:26:50.729Z,31.54
2023-05-06T10:27:50.721Z,31.51
2023-05-06T10:28:50.683Z,31.50
2023-05-06T10:29:50.652Z,31.50
2023-05-06T10:30:50.671Z,31.48
2023-05-06T10:31:50.738Z,31.49
2023-05-06T10:32:50.733Z,31.50
2023-05-06T10:33:50.696Z,31.47
2023-05-06T10:34:50.671Z,31.45
2023-05-06T10:35:50.673Z,31.45
2023-05-06T10:36:50.678Z,31.45
2023-05-06T10:37:50.686Z,31.45
2023-05-06T10:38:50.632Z,31.41
2023-05-06T10:39:50.616Z,31.41
2023-05-06T10:40:50.746Z,31.40
2023-05-06T10:41:50.780Z,31.38
2023-05-06T10:42:50.822Z,31.41
2023-05-06T10:43:50.856Z,31.43
2023-05-06T10:44:50.896Z,31.43
2023-05-06T10:45:50.996Z,31.41
2023-05-06T10:46:51.038Z,31.46
2023-05-06T10:47:51.175Z,31.44
2023-05-06T10:48:51.155Z,31.48
2023-05-06T10:49:51.225Z,31.49
2023-05-06T10:50:51.295Z,31.51
2023-05-06T10:51:51.390Z,31.52
2023-05-06T10:52:51.413Z,31.53
2023-05-06T10:53:51.471Z,31.55
2023-05-06T10:54:51.525Z,31.55
2023-05-06T10:55:51.557Z,31.54
2023-05-06T10:56:51.699Z,31.58
2023-05-06T10:57:51.691Z,31.56
2023-05-06T10:58:51.752Z,31.56
2023-05-06T10:59:51.848Z,31.58
2023-05-06T11:00:51.928Z,31.55
2023-05-06T11:01:51.917Z,31.56
2023-05-06T11:02:52.068Z,31.56
2023-05-06T11:03:52.088Z,31.56
2023-05-06T11:04:52.127Z,31.54
2023-05-06T11:05:52.186Z,31.55
2023-05-06T11:06:52.223Z,31.55
2023-05-06T11:07:52.296Z,31.54
2023-05-06T11:08:52.343Z,31.51
2023-05-06T11:09:52.430Z,31.54
2023-05-06T11:10:52.445Z,31.51
2023-05-06T11:11:52.548Z,31.51
2023-05-06T11:12:52.892Z,31.51
2023-05-06T11:13:52.625Z,31.51
2023-05-06T11:14:52.703Z,31.54
2023-05-06T11:15:52.793Z,31.49
2023-05-06T11:16:52.861Z,31.50
2023-05-06T11:17:52.944Z,31.50
2023-05-06T11:18:52.950Z,31.48
2023-05-06T11:19:53.007Z,31.47
2023-05-06T11:20:53.056Z,31.46
2023-05-06T11:21:53.124Z,31.45
2023-05-06T11:22:53.172Z,31.47
2023-05-06T11:23:53.246Z,31.46
2023-05-06T11:24:53.294Z,31.45
2023-05-06T11:25:53.356Z,31.48
2023-05-06T11:26:53.404Z,31.46
2023-05-06T11:27:53.484Z,31.48
2023-05-06T11:28:53.651Z,31.47
2023-05-06T11:29:53.589Z,31.48
2023-05-06T11:30:53.680Z,31.50
2023-05-06T11:31:53.662Z,31.49
2023-05-06T11:32:53.805Z,31.49
2023-05-06T11:33:53.831Z,31.52
2023-05-06T11:34:53.875Z,31.52
2023-05-06T11:35:53.944Z,31.52
2023-05-06T11:36:53.988Z,31.53
2023-05-06T11:37:54.092Z,31.56
2023-05-06T11:38:54.150Z,31.56
2023-05-06T11:39:54.191Z,31.57
2023-05-06T11:40:54.206Z,31.56
2023-05-06T11:41:54.280Z,31.57
2023-05-06T11:42:54.334Z,31.56
2023-05-06T11:43:54.349Z,31.56
2023-05-06T11:44:54.451Z,31.56
2023-05-06T11:45:54.556Z,31.56
2023-05-06T11:46:54.564Z,31.55
2023-05-06T11:47:54.694Z,31.55
2023-05-06T11:48:54.655Z,31.52
2023-05-06T11:49:54.746Z,31.51
2023-05-06T11:50:54.759Z,31.52
2023-05-06T11:51:54.873Z,31.49
2023-05-06T11:52:54.876Z,31.48
2023-05-06T11:53:54.901Z,31.46
2023-05-06T11:54:54.985Z,31.47
2023-05-06T11:55:55.014Z,31.46
2023-05-06T11:56:55.116Z,31.46
2023-05-06T11:57:55.151Z,31.45
2023-05-06T11:58:55.226Z,31.45
2023-05-06T11:59:55.269Z,31.44
2023-05-06T12:00:55.376Z,31.43
2023-05-06T12:01:55.337Z,31.42
2023-05-06T12:02:55.537Z,31.41
2023-05-06T12:03:55.572Z,31.39
2023-05-06T12:04:55.514Z,31.38
2023-05-06T12:05:55.593Z,31.37
2023-05-06T12:06:55.648Z,31.39
2023-05-06T12:07:55.694Z,31.40
2023-05-06T12:08:55.748Z,31.41
2023-05-06T12:09:55.760Z,31.43
2023-05-06T12:10:55.845Z,31.41
2023-05-06T12:11:55.917Z,31.42
2023-05-06T12:12:56.047Z,31.43
2023-05-06T12:13:55.990Z,31.41
2023-05-06T12:14:56.041Z,31.40
2023-05-06T12:15:56.102Z,31.41
2023-05-06T12:16:56.255Z,31.41
2023-05-06T12:17:56.257Z,31.40
2023-05-06T12:18:56.222Z,31.42
2023-05-06T12:19:56.289Z,31.42
2023-05-06T12:20:56.329Z,31.42
2023-05-06T12:21:56.353Z,31.42
2023-05-06T12:22:56.400Z,31.42
2023-05-06T12:23:56.560Z,31.43
2023-05-06T12:24:56.468Z,31.41
2023-05-06T12:25:56.527Z,31.45
2023-05-06T12:26:56.564Z,31.43
2023-05-06T12:27:57.958Z,31.43
2023-05-06T12:28:56.655Z,31.44
2023-05-06T12:29:56.698Z,31.44
2023-05-06T12:30:56.688Z,31.45
2023-05-06T12:31:56.853Z,31.45
2023-05-06T12:32:56.891Z,31.41
2023-05-06T12:33:58.091Z,31.45
2023-05-06T12:34:56.794Z,31.47
2023-05-06T12:35:56.774Z,31.45
2023-05-06T12:36:56.820Z,31.47
2023-05-06T12:37:56.818Z,31.47
2023-05-06T12:38:56.822Z,31.47
2023-05-06T12:39:58.872Z,31.46
2023-05-06T12:40:57.044Z,31.47
2023-05-06T12:41:56.995Z,31.48
2023-05-06T12:42:57.061Z,31.47
2023-05-06T12:43:57.070Z,31.47
2023-05-06T12:44:57.044Z,31.47
2023-05-06T12:45:58.117Z,31.49
2023-05-06T12:46:57.133Z,31.48
2023-05-06T12:47:57.163Z,31.49
2023-05-06T12:48:57.239Z,31.49
2023-05-06T12:49:57.213Z,31.51
2023-05-06T12:50:57.238Z,31.49
2023-05-06T12:51:57.247Z,31.48
2023-05-06T12:52:57.268Z,31.49
2023-05-06T12:53:57.297Z,31.52